CheckWX is a tool to help pilots better visualize weather data.  It is not intended as a substitute for an official pre-flight weather briefing.

18:08:22 UTC

KAXA METAR
Algona Municipal Airport
Algona, Iowa, USA
Current

33 mins ago

KAXA 201735Z AUTO 21007KT 10SM CLR M14/M17 A3075 RMK A01
Observed
Feb-20 @ 17:35 UTC
Wind
  • 210° at 7 KTS
Visibility
10 SM
Flight Rules
VFR
Cloud Levels
  • Clear skies
Temperature
-14°C / 7°F
Dewpoint
-17°C / 1°F
Humidity
78%
Altimeter
30.75" Hg
Pressure
1041.32 hPa
Previous

53 mins ago

KAXA 201715Z AUTO 20006KT 10SM CLR M14/M18 A3076 RMK A01
Observed
Feb-20 @ 17:15 UTC
Wind
  • 200° at 6 KTS
Visibility
10 SM
Flight Rules
VFR
Cloud Levels
  • Clear skies
Temperature
-14°C / 7°F
Dewpoint
-18°C / -0°F
Humidity
72%
Altimeter
30.76" Hg
Pressure
1041.62 hPa
Previous

1 hour ago

KAXA 201655Z AUTO 23005KT 10SM CLR M14/M19 A3076 RMK A01
Observed
Feb-20 @ 16:55 UTC
Wind
  • 230° at 5 KTS
Visibility
10 SM
Flight Rules
VFR
Cloud Levels
  • Clear skies
Temperature
-14°C / 7°F
Dewpoint
-19°C / -2°F
Humidity
66%
Altimeter
30.76" Hg
Pressure
1041.62 hPa